Time;durP1;ratioP1;P1;durP2;ratioP2;P2;SDS_P1;SDS_P2;PMS_P1;PMS_P2;Temp;Humidity;BMP_temperature;BMP_pressure;BME280_temperature;BME280_humidity;BME280_pressure;Samples;Min_cycle;Max_cycle;Signal;HPM_P1;HPM_P2
2022/02/11 00:00:06;;;;;;;11.57;4.15;;;3.50;99.00;;;;;;5036682;28;20045;-66
2022/02/11 00:07:56;;;;;;;8.00;3.13;;;3.50;99.90;;;;;;5040926;28;20053;-65
2022/02/11 00:10:24;;;;;;;5.22;3.45;;;3.40;99.90;;;;;;5032539;28;20055;-68
2022/02/11 00:12:51;;;;;;;8.73;2.60;;;3.40;99.90;;;;;;5032423;28;20052;-65
2022/02/11 00:17:54;;;;;;;9.23;3.30;;;3.40;99.90;;;;;;5053492;28;20053;-65
2022/02/11 00:20:22;;;;;;;6.80;2.85;;;3.40;99.90;;;;;;5053213;28;20049;-65
2022/02/11 00:22:49;;;;;;;7.97;2.92;;;3.30;99.90;;;;;;5052938;28;20249;-65
2022/02/11 00:25:17;;;;;;;14.20;5.10;;;3.30;99.90;;;;;;5042716;28;20057;-65
2022/02/11 00:31:30;;;;;;;11.38;3.75;;;3.30;99.90;;;;;;5025200;28;20053;-67
2022/02/11 00:33:55;;;;;;;8.63;3.15;;;3.20;99.90;;;;;;5040848;28;20051;-65
2022/02/11 00:36:40;;;;;;;10.00;2.60;;;3.20;99.90;;;;;;5062684;28;20068;-65
2022/02/11 01:03:54;;;;;;;8.65;2.70;;;3.00;99.90;;;;;;5044639;28;20041;-65
2022/02/11 01:06:21;;;;;;;7.38;2.80;;;3.00;99.90;;;;;;5049912;28;20412;-67
2022/02/11 01:08:48;;;;;;;9.80;3.28;;;3.00;99.90;;;;;;5050635;28;20484;-65
2022/02/11 01:11:22;;;;;;;10.23;2.75;;;3.00;99.90;;;;;;5051610;28;20053;-68
2022/02/11 01:13:49;;;;;;;7.15;2.80;;;2.90;99.90;;;;;;5051746;28;20584;-64
2022/02/11 01:16:22;;;;;;;13.55;3.53;;;2.90;99.90;;;;;;5036376;28;20496;-66
2022/02/11 01:18:58;;;;;;;16.85;4.82;;;2.90;99.90;;;;;;5031306;28;20045;-65
2022/02/11 01:21:34;;;;;;;10.43;3.00;;;2.90;99.90;;;;;;5038975;28;20048;-65
2022/02/11 01:24:43;;;;;;;8.55;2.80;;;2.90;99.90;;;;;;5058916;28;20067;-65
2022/02/11 01:32:24;;;;;;;9.15;3.72;;;2.90;99.90;;;;;;5055908;28;20041;-66
2022/02/11 01:37:53;;;;;;;9.20;2.55;;;2.80;99.90;;;;;;5063424;28;20048;-68
2022/02/11 02:18:08;;;;;;;8.70;3.75;;;2.70;99.90;;;;;;5071110;28;20040;-65
2022/02/11 02:25:06;;;;;;;8.35;3.22;;;2.60;99.90;;;;;;5042004;28;20114;-67
2022/02/11 02:28:43;;;;;;;5.93;2.67;;;2.60;99.90;;;;;;5046931;28;20060;-65
2022/02/11 02:58:12;;;;;;;21.27;2.97;;;2.50;99.90;;;;;;5058743;28;20056;-65
2022/02/11 03:15:08;;;;;;;7.05;2.83;;;2.40;99.90;;;;;;5053945;28;20048;-66
2022/02/11 03:31:29;;;;;;;10.35;2.30;;;2.40;99.90;;;;;;5041263;28;20059;-64
2022/02/11 04:57:04;;;;;;;5.05;2.60;;;1.30;99.90;;;;;;5055603;28;20056;-65
2022/02/11 04:59:38;;;;;;;7.65;2.72;;;1.30;99.90;;;;;;5044559;28;20045;-65
2022/02/11 05:02:07;;;;;;;5.07;2.35;;;1.30;99.90;;;;;;5053465;28;20063;-69
2022/02/11 05:04:34;;;;;;;6.97;2.28;;;1.30;99.90;;;;;;5052183;28;20500;-65
2022/02/11 05:07:03;;;;;;;6.43;2.10;;;1.30;99.90;;;;;;5051812;28;20056;-65
2022/02/11 05:09:32;;;;;;;7.68;3.00;;;1.30;99.90;;;;;;5035107;28;20060;-65
2022/02/11 05:11:58;;;;;;;6.50;2.63;;;1.30;99.90;;;;;;5051807;28;20068;-70
2022/02/11 05:14:25;;;;;;;8.35;2.97;;;1.30;99.90;;;;;;5053003;28;20060;-65
2022/02/11 05:16:52;;;;;;;10.55;2.92;;;1.30;99.90;;;;;;5051313;28;20072;-65
2022/02/11 05:19:19;;;;;;;9.30;3.00;;;1.30;99.90;;;;;;5068593;28;20060;-66
2022/02/11 05:21:46;;;;;;;12.60;3.15;;;1.40;99.90;;;;;;5052862;28;20045;-65
2022/02/11 05:24:13;;;;;;;11.65;2.38;;;1.30;99.90;;;;;;5063118;28;20041;-65
2022/02/11 05:26:40;;;;;;;11.23;3.55;;;1.30;99.90;;;;;;5051770;28;20048;-64
2022/02/11 05:29:07;;;;;;;10.15;3.25;;;1.30;99.90;;;;;;5066646;28;20455;-65
2022/02/11 05:31:34;;;;;;;8.57;4.35;;;1.30;99.90;;;;;;5034832;28;20053;-65
2022/02/11 05:34:00;;;;;;;7.35;2.50;;;1.30;99.90;;;;;;5050782;28;20056;-64
2022/02/11 05:36:27;;;;;;;5.03;2.08;;;1.30;99.90;;;;;;5051601;28;20041;-65
2022/02/11 05:38:54;;;;;;;7.18;4.03;;;1.30;99.90;;;;;;5050993;28;20366;-65
2022/02/11 05:41:21;;;;;;;8.93;2.72;;;1.30;99.90;;;;;;5051307;28;20390;-65
2022/02/11 05:43:48;;;;;;;5.38;2.10;;;1.30;99.90;;;;;;5051500;28;20053;-65
2022/02/11 05:46:16;;;;;;;8.25;3.58;;;1.30;99.90;;;;;;5051636;28;20568;-65
2022/02/11 05:48:43;;;;;;;11.90;2.83;;;1.30;99.90;;;;;;5051097;28;20424;-65
2022/02/11 05:51:10;;;;;;;4.93;2.42;;;1.30;99.90;;;;;;5053472;28;20052;-64
2022/02/11 05:53:37;;;;;;;10.40;3.45;;;1.30;99.90;;;;;;5058104;28;20492;-76
2022/02/11 05:56:04;;;;;;;10.32;3.72;;;1.20;99.90;;;;;;5055593;28;20044;-75
2022/02/11 05:58:31;;;;;;;8.57;2.60;;;1.20;99.90;;;;;;5058318;28;20063;-65
2022/02/11 06:00:58;;;;;;;10.43;4.78;;;1.20;99.90;;;;;;5054162;28;20052;-66
2022/02/11 06:03:25;;;;;;;13.43;2.72;;;1.20;99.90;;;;;;5054252;28;20045;-65
2022/02/11 06:05:52;;;;;;;6.65;2.50;;;1.20;99.90;;;;;;5037769;28;20111;-65
2022/02/11 06:08:19;;;;;;;7.45;2.92;;;1.20;99.90;;;;;;5067392;28;20413;-65
2022/02/11 06:10:47;;;;;;;10.23;3.00;;;1.30;99.90;;;;;;5065970;28;20067;-65
2022/02/11 06:13:15;;;;;;;11.18;3.88;;;1.30;99.90;;;;;;5042040;28;20033;-65
2022/02/11 06:15:45;;;;;;;8.35;2.83;;;1.30;99.90;;;;;;5052727;28;20510;-64
2022/02/11 06:18:12;;;;;;;7.65;3.00;;;1.30;99.90;;;;;;5049714;28;20107;-65
2022/02/11 06:20:39;;;;;;;5.93;3.00;;;1.30;99.90;;;;;;5051785;28;20127;-64
2022/02/11 06:23:06;;;;;;;11.93;3.92;;;1.30;99.90;;;;;;5060989;28;20036;-65
2022/02/11 06:25:33;;;;;;;9.93;3.47;;;1.30;99.90;;;;;;5058174;28;20049;-66
2022/02/11 06:28:00;;;;;;;7.65;2.60;;;1.30;99.90;;;;;;5064716;28;20443;-65
2022/02/11 06:30:27;;;;;;;7.00;2.67;;;1.30;99.90;;;;;;5055864;28;20057;-65
2022/02/11 06:32:59;;;;;;;8.68;4.72;;;1.30;99.90;;;;;;5050055;28;20045;-64
2022/02/11 06:35:31;;;;;;;6.18;3.00;;;1.30;99.90;;;;;;5041906;28;20083;-65
2022/02/11 06:37:58;;;;;;;4.43;2.50;;;1.30;99.90;;;;;;5059504;28;20518;-64
2022/02/11 06:40:29;;;;;;;9.57;2.83;;;1.30;99.90;;;;;;5042098;28;20048;-64
2022/02/11 06:42:56;;;;;;;8.00;2.55;;;1.40;99.90;;;;;;5051636;28;20041;-64
2022/02/11 06:45:24;;;;;;;6.50;2.92;;;1.40;99.90;;;;;;5061365;28;20636;-74
2022/02/11 06:47:51;;;;;;;8.13;3.25;;;1.50;99.90;;;;;;5063386;28;20045;-64
2022/02/11 06:50:18;;;;;;;8.48;3.03;;;1.50;99.90;;;;;;5049864;28;20049;-64
2022/02/11 06:52:45;;;;;;;9.32;3.03;;;1.60;99.90;;;;;;5055025;28;20064;-65
2022/02/11 06:55:12;;;;;;;6.70;2.90;;;1.70;99.90;;;;;;5055277;28;20045;-64
2022/02/11 06:57:39;;;;;;;8.40;2.78;;;1.80;99.90;;;;;;5068777;28;20055;-64
2022/02/11 07:00:08;;;;;;;7.95;2.63;;;1.80;99.90;;;;;;5055635;28;20067;-65
2022/02/11 07:02:35;;;;;;;12.77;3.03;;;1.90;99.90;;;;;;5050153;28;20055;-65
2022/02/11 07:05:02;;;;;;;11.20;3.92;;;2.00;99.90;;;;;;5050959;28;20052;-65
2022/02/11 07:07:29;;;;;;;8.07;2.42;;;2.00;99.90;;;;;;5054277;28;20049;-64
2022/02/11 07:09:56;;;;;;;10.18;2.83;;;2.00;99.90;;;;;;5054865;28;20362;-65
2022/02/11 07:12:23;;;;;;;5.82;2.58;;;2.10;99.90;;;;;;5067468;28;20052;-75
2022/02/11 07:14:50;;;;;;;7.90;2.40;;;2.10;99.90;;;;;;5057519;28;20036;-64
2022/02/11 07:17:17;;;;;;;7.15;2.85;;;2.10;99.90;;;;;;5065688;28;20106;-65
2022/02/11 07:19:44;;;;;;;8.05;3.33;;;2.20;99.90;;;;;;5055369;28;20064;-65
2022/02/11 07:22:11;;;;;;;8.30;3.25;;;2.20;99.90;;;;;;5057476;28;20049;-71
2022/02/11 07:24:38;;;;;;;9.55;2.97;;;2.30;99.90;;;;;;5065172;28;20053;-65
2022/02/11 07:27:05;;;;;;;46.63;26.98;;;2.30;99.90;;;;;;5072968;28;20041;-66
2022/02/11 07:29:32;;;;;;;16.63;8.02;;;2.30;99.90;;;;;;5050852;28;20554;-64
2022/02/11 07:31:59;;;;;;;17.60;7.97;;;2.40;99.90;;;;;;5039034;28;20052;-67
2022/02/11 07:34:26;;;;;;;16.70;7.35;;;2.40;99.90;;;;;;5059209;28;20048;-69
2022/02/11 07:36:52;;;;;;;9.18;4.22;;;2.40;99.90;;;;;;5041843;28;20168;-65
2022/02/11 07:39:39;;;;;;;7.38;4.13;;;2.40;99.90;;;;;;5064576;28;20400;-64
2022/02/11 07:42:06;;;;;;;10.55;3.75;;;2.30;99.90;;;;;;5068018;28;20484;-66
2022/02/11 07:44:33;;;;;;;55.95;32.70;;;2.30;99.90;;;;;;5065966;28;20378;-68
2022/02/11 07:47:00;;;;;;;32.92;19.73;;;2.20;99.90;;;;;;5054289;28;20084;-67
2022/02/11 07:49:27;;;;;;;91.25;48.40;;;2.20;99.90;;;;;;5046517;28;20052;-65
2022/02/11 07:51:54;;;;;;;38.97;24.63;;;2.20;99.90;;;;;;5067395;28;20110;-66
2022/02/11 07:54:21;;;;;;;22.90;12.35;;;2.10;99.90;;;;;;5055169;28;20068;-65
2022/02/11 07:56:48;;;;;;;14.05;6.88;;;2.10;99.90;;;;;;5057491;28;20048;-65
2022/02/11 07:59:15;;;;;;;11.60;5.50;;;2.00;99.90;;;;;;5062571;28;20040;-65
2022/02/11 08:01:42;;;;;;;15.25;4.60;;;2.00;99.90;;;;;;5040704;28;20053;-65
2022/02/11 08:04:09;;;;;;;9.90;4.82;;;2.00;99.90;;;;;;5042513;28;20053;-63
2022/02/11 08:06:36;;;;;;;7.47;3.78;;;1.90;99.90;;;;;;5054129;28;20049;-61
2022/02/11 08:09:03;;;;;;;9.45;3.78;;;1.90;99.90;;;;;;5057409;28;20048;-70
2022/02/11 08:11:34;;;;;;;8.18;2.90;;;1.90;99.90;;;;;;5059755;28;20396;-63
2022/02/11 08:14:02;;;;;;;9.70;3.53;;;1.90;99.90;;;;;;5054156;28;20048;-63
2022/02/11 08:16:29;;;;;;;10.10;3.53;;;1.90;99.90;;;;;;5055699;28;20934;-64
2022/02/11 08:18:57;;;;;;;9.15;3.90;;;2.00;99.90;;;;;;5052209;28;20055;-64
2022/02/11 08:21:24;;;;;;;8.88;4.32;;;2.00;99.90;;;;;;5056171;28;20051;-67
2022/02/11 08:23:52;;;;;;;8.55;5.00;;;2.00;99.90;;;;;;5052756;28;20048;-66
2022/02/11 08:26:19;;;;;;;8.02;3.60;;;2.10;99.90;;;;;;5052435;28;20068;-67
2022/02/11 08:28:45;;;;;;;9.30;3.85;;;2.10;99.90;;;;;;5052667;28;20511;-67
2022/02/11 08:31:12;;;;;;;9.63;3.70;;;2.10;99.90;;;;;;5053593;28;20049;-68
2022/02/11 08:33:39;;;;;;;15.07;3.50;;;2.10;99.90;;;;;;5053806;28;20056;-67
2022/02/11 08:36:06;;;;;;;12.27;6.18;;;2.10;99.90;;;;;;5053867;28;20040;-69
2022/02/11 08:38:33;;;;;;;17.25;7.32;;;2.20;99.90;;;;;;5053835;28;20067;-66
2022/02/11 08:41:00;;;;;;;14.40;6.05;;;2.20;99.90;;;;;;5052071;28;20060;-67
2022/02/11 08:43:27;;;;;;;11.45;4.30;;;2.20;99.90;;;;;;5038415;28;20465;-66
2022/02/11 08:45:54;;;;;;;10.18;3.95;;;2.30;99.90;;;;;;5033535;28;20378;-68
2022/02/11 08:48:21;;;;;;;10.13;4.07;;;2.30;99.90;;;;;;5077061;28;20049;-66
2022/02/11 08:50:48;;;;;;;15.50;4.00;;;2.30;99.90;;;;;;5054231;28;20041;-67
2022/02/11 08:53:31;;;;;;;666.92;422.02;;;2.40;99.90;;;;;;5056675;28;20049;-72
2022/02/11 08:56:05;;;;;;;622.67;343.10;;;2.50;99.90;;;;;;5032054;28;20049;-68
2022/02/11 08:58:33;;;;;;;273.45;196.63;;;2.60;99.90;;;;;;5065125;28;20053;-68
2022/02/11 09:01:00;;;;;;;100.65;67.05;;;2.60;99.90;;;;;;5014658;28;20045;-67
2022/02/11 09:03:27;;;;;;;51.05;31.40;;;2.70;99.90;;;;;;5048813;28;20095;-70
2022/02/11 09:05:54;;;;;;;27.48;17.83;;;2.70;99.90;;;;;;5054146;28;20052;-65
2022/02/11 09:08:22;;;;;;;19.10;10.00;;;2.80;99.90;;;;;;5070782;28;20045;-70
2022/02/11 09:10:51;;;;;;;16.20;7.78;;;2.80;99.90;;;;;;5055052;28;20088;-66
2022/02/11 09:13:18;;;;;;;14.98;8.15;;;2.90;99.90;;;;;;5059188;28;20041;-66
2022/02/11 09:15:48;;;;;;;15.32;5.65;;;2.90;99.90;;;;;;5042890;28;20048;-67
2022/02/11 09:18:15;;;;;;;14.57;6.22;;;3.00;99.90;;;;;;5044167;28;20094;-67
2022/02/11 09:20:42;;;;;;;12.88;4.88;;;3.00;99.90;;;;;;5051421;28;20059;-71
2022/02/11 09:23:09;;;;;;;10.68;5.43;;;3.10;99.90;;;;;;5052492;28;20052;-67
2022/02/11 09:25:36;;;;;;;11.35;4.70;;;3.10;99.90;;;;;;5051303;28;20139;-67
2022/02/11 09:28:04;;;;;;;10.93;4.47;;;3.20;99.90;;;;;;5051558;28;20045;-67
2022/02/11 09:30:31;;;;;;;8.80;3.88;;;3.20;99.90;;;;;;5050145;28;20052;-68
2022/02/11 09:32:59;;;;;;;13.20;4.93;;;3.20;99.90;;;;;;5034694;28;20052;-68
2022/02/11 09:35:30;;;;;;;11.98;4.68;;;3.30;99.90;;;;;;5051178;28;20048;-68
2022/02/11 09:37:57;;;;;;;16.10;5.53;;;3.30;99.90;;;;;;5052730;28;20051;-67
2022/02/11 09:40:25;;;;;;;9.38;4.25;;;3.40;99.90;;;;;;5050696;28;20139;-68
2022/02/11 09:42:53;;;;;;;12.60;4.50;;;3.40;99.90;;;;;;5051251;28;20489;-67
2022/02/11 09:45:20;;;;;;;10.63;3.95;;;3.50;99.90;;;;;;5050687;28;20049;-67
2022/02/11 09:47:50;;;;;;;8.02;3.88;;;3.50;99.90;;;;;;5027550;28;20409;-67
2022/02/11 09:50:18;;;;;;;14.05;4.93;;;3.60;99.90;;;;;;5032483;28;20176;-67
2022/02/11 09:52:53;;;;;;;9.60;3.97;;;3.60;99.90;;;;;;5063798;28;20060;-68
2022/02/11 09:55:32;;;;;;;14.93;5.68;;;3.70;99.90;;;;;;5063632;28;20042;-67
2022/02/11 09:57:59;;;;;;;10.80;3.30;;;3.70;99.90;;;;;;5032470;28;20057;-68
2022/02/11 10:00:27;;;;;;;11.65;3.63;;;3.80;99.90;;;;;;5045597;28;20041;-67
2022/02/11 10:02:56;;;;;;;8.50;4.38;;;3.80;99.90;;;;;;5051631;28;20075;-68
2022/02/11 10:05:32;;;;;;;16.08;4.25;;;3.90;99.90;;;;;;5052264;28;20041;-68
2022/02/11 10:08:00;;;;;;;10.02;3.80;;;3.90;99.90;;;;;;5052101;28;20048;-68
2022/02/11 10:10:40;;;;;;;12.10;4.93;;;4.00;99.90;;;;;;5034190;28;20056;-67
2022/02/11 10:13:10;;;;;;;12.25;4.53;;;4.00;99.90;;;;;;5050786;28;20139;-68
2022/02/11 10:15:40;;;;;;;16.15;6.70;;;4.10;99.90;;;;;;5050853;28;20397;-68
2022/02/11 10:18:07;;;;;;;11.75;4.55;;;4.20;99.90;;;;;;5050351;28;20565;-68
2022/02/11 10:20:50;;;;;;;10.95;4.82;;;4.20;99.90;;;;;;5050853;28;20047;-67
2022/02/11 10:23:23;;;;;;;15.57;5.20;;;4.30;99.90;;;;;;5035549;28;20139;-67
2022/02/11 10:25:54;;;;;;;9.77;4.80;;;4.30;99.90;;;;;;5050366;28;20503;-69
2022/02/11 10:28:30;;;;;;;10.93;4.30;;;4.40;99.90;;;;;;5050563;28;20045;-67
2022/02/11 10:31:20;;;;;;;9.27;4.03;;;4.40;99.90;;;;;;5049999;28;20070;-68
2022/02/11 10:33:56;;;;;;;13.38;4.28;;;4.50;99.90;;;;;;5050629;28;20060;-67
2022/02/11 10:36:25;;;;;;;12.77;4.22;;;4.50;99.90;;;;;;5048821;28;20061;-68
2022/02/11 10:39:16;;;;;;;13.88;4.50;;;4.50;99.90;;;;;;5050673;28;20044;-68
2022/02/11 10:41:52;;;;;;;17.75;4.97;;;4.50;99.90;;;;;;5051173;28;20501;-68
2022/02/11 10:44:27;;;;;;;13.35;5.20;;;4.60;99.90;;;;;;5054050;28;20523;-67
2022/02/11 10:47:00;;;;;;;13.95;4.32;;;4.70;99.90;;;;;;5054437;28;20122;-67
2022/02/11 10:49:34;;;;;;;10.10;4.10;;;4.70;99.90;;;;;;5034732;28;20049;-68
2022/02/11 10:52:12;;;;;;;14.57;5.00;;;4.70;99.90;;;;;;5034617;28;20391;-68
2022/02/11 10:54:39;;;;;;;10.23;4.43;;;4.80;99.90;;;;;;5034465;28;20049;-67
2022/02/11 10:57:09;;;;;;;10.43;3.75;;;4.80;99.90;;;;;;5034569;28;20084;-68
2022/02/11 10:59:37;;;;;;;9.30;4.10;;;4.80;99.90;;;;;;5037939;28;20053;-68
2022/02/11 11:02:09;;;;;;;13.98;4.40;;;4.80;99.90;;;;;;5048069;28;20087;-68
2022/02/11 11:04:36;;;;;;;14.25;5.35;;;4.90;99.90;;;;;;5054240;28;20057;-67
2022/02/11 11:07:04;;;;;;;10.23;4.20;;;5.00;99.90;;;;;;5053923;28;20128;-67
2022/02/11 11:09:31;;;;;;;10.27;5.07;;;5.00;99.90;;;;;;5053869;28;20484;-67
2022/02/11 11:11:59;;;;;;;12.90;4.18;;;5.00;99.90;;;;;;5053579;28;20044;-68
2022/02/11 11:14:27;;;;;;;9.60;3.90;;;5.10;99.90;;;;;;5054097;28;20053;-67
2022/02/11 11:16:58;;;;;;;11.75;4.20;;;5.10;99.90;;;;;;5053967;28;20045;-67
2022/02/11 11:19:25;;;;;;;11.32;4.60;;;5.10;99.90;;;;;;5017954;28;20512;-68
2022/02/11 11:22:11;;;;;;;14.27;5.00;;;5.20;99.90;;;;;;5050791;28;20049;-68
2022/02/11 11:24:51;;;;;;;10.73;5.00;;;5.30;99.90;;;;;;5034459;28;20452;-67
2022/02/11 11:27:45;;;;;;;23.90;11.90;;;5.30;99.90;;;;;;5034193;28;20057;-66
2022/02/11 11:30:25;;;;;;;64.28;44.60;;;5.40;99.90;;;;;;5046634;28;20487;-65
2022/02/11 11:33:05;;;;;;;23.15;11.52;;;5.50;99.90;;;;;;5055095;28;20067;-67
2022/02/11 11:35:41;;;;;;;15.15;6.45;;;5.50;99.90;;;;;;5034768;28;20132;-66
2022/02/11 11:38:19;;;;;;;14.70;6.03;;;5.50;99.90;;;;;;5035032;28;20049;-67
2022/02/11 11:41:04;;;;;;;11.95;5.05;;;5.60;99.90;;;;;;5023907;28;20052;-68
2022/02/11 11:43:36;;;;;;;11.43;3.92;;;5.70;99.50;;;;;;5034911;28;20053;-67
2022/02/11 11:46:04;;;;;;;11.43;3.80;;;5.80;99.50;;;;;;5033306;28;20057;-67
2022/02/11 11:48:51;;;;;;;9.70;4.05;;;5.90;99.90;;;;;;5054583;28;20040;-66
2022/02/11 11:51:19;;;;;;;9.00;3.75;;;5.90;98.90;;;;;;5038635;28;20481;-66
2022/02/11 11:53:46;;;;;;;9.25;3.60;;;6.00;99.70;;;;;;5054229;28;20396;-66
2022/02/11 11:56:32;;;;;;;16.75;5.68;;;6.20;97.20;;;;;;5054097;28;20044;-66
2022/02/11 11:59:19;;;;;;;15.80;4.68;;;6.30;96.40;;;;;;5036756;28;20057;-67
2022/02/11 12:01:59;;;;;;;11.00;4.22;;;6.40;97.00;;;;;;5053679;28;20060;-67
2022/02/11 12:04:32;;;;;;;11.75;4.95;;;6.60;96.40;;;;;;5067054;28;20484;-67
2022/02/11 12:07:02;;;;;;;168.02;102.60;;;6.70;95.90;;;;;;5073364;28;20048;-65
2022/02/11 12:09:29;;;;;;;221.98;180.40;;;6.90;99.00;;;;;;5056088;28;20055;-68
2022/02/11 12:11:59;;;;;;;48.28;32.03;;;7.10;95.70;;;;;;5055877;28;20087;-68
2022/02/11 12:14:27;;;;;;;38.35;16.15;;;7.30;93.80;;;;;;5073910;28;20053;-69
2022/02/11 12:16:57;;;;;;;23.98;12.35;;;7.40;93.80;;;;;;5040949;28;20519;-75
2022/02/11 12:19:25;;;;;;;13.02;5.07;;;7.50;94.30;;;;;;5038863;28;20075;-70
2022/02/11 12:21:52;;;;;;;11.95;5.38;;;7.70;93.60;;;;;;5051293;28;20059;-71
2022/02/11 12:27:20;;;;;;;14.05;4.97;;;7.70;92.60;;;;;;5050378;28;20131;-67
2022/02/11 12:29:53;;;;;;;8.48;4.68;;;7.80;92.30;;;;;;5052214;28;20049;-70
2022/02/11 12:32:40;;;;;;;17.92;6.22;;;7.80;92.70;;;;;;5047836;28;20052;-68
2022/02/11 12:35:10;;;;;;;16.75;4.43;;;7.90;92.20;;;;;;5035309;28;20133;-73
2022/02/11 12:37:37;;;;;;;;;;;7.90;90.00;;;;;;5014680;28;20463;-69
2022/02/11 12:40:11;;;;;;;7.20;3.67;;;8.00;89.20;;;;;;5052306;28;19931;-69
2022/02/11 12:42:42;;;;;;;7.90;2.92;;;8.00;89.60;;;;;;5053612;28;20041;-71
2022/02/11 12:45:11;;;;;;;8.77;3.33;;;8.10;85.40;;;;;;5052020;28;20485;-68
2022/02/11 12:47:39;;;;;;;9.10;3.50;;;8.10;88.10;;;;;;5037851;28;20050;-73
2022/02/11 12:50:08;;;;;;;8.73;3.70;;;8.10;87.80;;;;;;5060453;28;20131;-67
2022/02/11 12:52:36;;;;;;;12.60;3.13;;;8.10;87.40;;;;;;5073338;28;20048;-70
2022/02/11 12:55:09;;;;;;;9.55;4.53;;;8.10;87.90;;;;;;5031707;28;20058;-70
2022/02/11 12:57:36;;;;;;;1470.68;953.88;;;8.10;86.10;;;;;;5016048;28;20049;-65
2022/02/11 13:00:06;;;;;;;132.73;118.13;;;8.10;90.20;;;;;;5044855;28;20049;-68
2022/02/11 13:02:35;;;;;;;51.65;44.03;;;8.10;85.30;;;;;;5052123;28;20049;-69
2022/02/11 13:05:16;;;;;;;24.95;20.58;;;8.00;85.10;;;;;;5051423;28;20045;-70
2022/02/11 13:07:45;;;;;;;15.68;8.70;;;8.10;85.40;;;;;;5052048;28;20051;-70
2022/02/11 13:10:21;;;;;;;13.25;6.40;;;8.10;87.30;;;;;;5051504;28;20041;-67
2022/02/11 13:12:52;;;;;;;9.38;4.72;;;8.10;86.30;;;;;;5051882;28;20041;-68
2022/02/11 13:15:19;;;;;;;9.50;3.22;;;8.20;85.20;;;;;;5053897;28;20041;-69
2022/02/11 13:17:47;;;;;;;7.82;3.13;;;8.20;85.00;;;;;;5046269;28;20120;-66
2022/02/11 13:20:18;;;;;;;8.70;2.53;;;8.20;82.00;;;;;;5053961;28;20095;-68
2022/02/11 13:22:46;;;;;;;6.43;3.03;;;8.10;82.80;;;;;;5053792;28;20076;-73
2022/02/11 13:25:14;;;;;;;9.35;3.33;;;8.10;82.10;;;;;;5052937;28;20048;-70
2022/02/11 13:27:43;;;;;;;11.77;3.58;;;8.10;81.90;;;;;;5056049;28;20136;-70
2022/02/11 13:30:11;;;;;;;7.15;3.40;;;8.00;80.90;;;;;;5055068;28;20081;-68
2022/02/11 13:32:38;;;;;;;7.15;3.53;;;7.90;82.40;;;;;;5060036;28;20049;-68
2022/02/11 13:35:06;;;;;;;7.82;3.05;;;7.90;82.30;;;;;;5031310;28;20049;-66
2022/02/11 13:37:40;;;;;;;7.05;2.47;;;7.90;81.60;;;;;;5045584;28;20501;-71
2022/02/11 13:40:31;;;;;;;11.07;2.80;;;7.80;81.00;;;;;;5051748;28;20511;-67
2022/02/11 13:43:05;;;;;;;9.57;3.20;;;7.80;82.40;;;;;;5051370;28;20045;-66
2022/02/11 13:46:08;;;;;;;9.50;2.40;;;7.80;79.20;;;;;;5045704;28;20045;-66
2022/02/11 13:48:52;;;;;;;9.68;3.17;;;7.70;78.40;;;;;;5030944;28;20041;-67
2022/02/11 13:51:19;;;;;;;7.15;2.78;;;7.70;78.90;;;;;;5028660;28;20126;-67
2022/02/11 13:53:53;;;;;;;9.00;3.17;;;7.70;80.00;;;;;;5031496;28;20052;-66
2022/02/11 13:56:22;;;;;;;9.13;3.55;;;7.70;82.20;;;;;;5014956;28;20479;-67
2022/02/11 13:59:03;;;;;;;6.07;3.15;;;7.70;81.10;;;;;;5033384;28;20056;-67
2022/02/11 14:01:31;;;;;;;8.63;2.83;;;7.80;82.50;;;;;;5055807;28;20105;-66
2022/02/11 14:04:11;;;;;;;14.77;6.68;;;7.80;83.20;;;;;;5051840;28;20045;-65
2022/02/11 14:06:49;;;;;;;49.13;32.38;;;7.80;78.00;;;;;;5058215;28;20049;-67
2022/02/11 14:09:35;;;;;;;551.33;388.23;;;7.80;79.80;;;;;;5036908;28;20481;-69
2022/02/11 14:12:03;;;;;;;37.40;24.63;;;7.80;81.40;;;;;;5049222;28;20100;-67
2022/02/11 14:14:33;;;;;;;21.33;13.00;;;7.80;79.50;;;;;;5048813;28;20109;-76
2022/02/11 14:17:05;;;;;;;21.38;11.23;;;7.70;78.70;;;;;;5058469;28;20072;-73
2022/02/11 14:19:38;;;;;;;13.32;4.82;;;7.70;80.30;;;;;;5049548;28;20137;-65
2022/02/11 14:22:05;;;;;;;7.32;3.97;;;7.70;81.10;;;;;;5036837;28;20072;-65
2022/02/11 14:24:32;;;;;;;11.50;3.65;;;7.70;80.90;;;;;;5051014;28;20388;-66
2022/02/11 14:26:59;;;;;;;8.80;3.00;;;7.60;81.70;;;;;;5050347;28;20052;-65
2022/02/11 14:29:26;;;;;;;6.55;3.05;;;7.60;81.20;;;;;;5052960;28;20056;-66
2022/02/11 14:31:54;;;;;;;6.15;3.38;;;7.60;81.60;;;;;;5053575;28;20048;-66
2022/02/11 14:34:21;;;;;;;8.93;3.25;;;7.60;81.80;;;;;;5048619;28;20052;-66
2022/02/11 14:36:48;;;;;;;9.43;3.15;;;7.60;79.90;;;;;;5050778;28;20060;-65
2022/02/11 14:39:17;;;;;;;9.80;2.67;;;7.60;81.10;;;;;;5037570;28;20056;-65
2022/02/11 14:41:48;;;;;;;9.98;2.72;;;7.60;81.10;;;;;;5051209;28;20107;-66
2022/02/11 14:44:23;;;;;;;7.43;3.05;;;7.60;79.80;;;;;;5050775;28;20149;-65
2022/02/11 14:46:56;;;;;;;8.05;2.63;;;7.60;79.70;;;;;;5051551;28;20152;-64
2022/02/11 14:49:23;;;;;;;5.13;2.72;;;7.70;79.70;;;;;;5054214;28;20402;-64
2022/02/11 14:51:54;;;;;;;15.02;9.60;;;7.70;79.10;;;;;;5042907;28;20507;-65
2022/02/11 14:54:22;;;;;;;12.32;4.57;;;7.70;80.70;;;;;;5053884;28;20040;-66
2022/02/11 14:56:50;;;;;;;8.73;4.25;;;7.70;81.60;;;;;;5057890;28;20049;-66
2022/02/11 14:59:18;;;;;;;8.52;3.03;;;7.80;81.60;;;;;;5062541;28;20412;-66
2022/02/11 15:01:46;;;;;;;10.18;3.63;;;7.80;81.90;;;;;;5043471;28;20052;-77
2022/02/11 15:04:15;;;;;;;8.27;3.10;;;7.90;81.30;;;;;;5042901;28;20091;-73
2022/02/11 15:06:43;;;;;;;9.48;3.38;;;7.90;81.70;;;;;;5051172;28;20045;-73
2022/02/11 15:09:10;;;;;;;8.95;3.35;;;7.90;81.70;;;;;;5058226;28;20055;-67
2022/02/11 15:11:37;;;;;;;5.93;3.97;;;7.90;80.40;;;;;;5063732;28;20083;-66
2022/02/11 15:14:04;;;;;;;9.25;3.00;;;8.00;79.70;;;;;;5058462;28;20051;-66
2022/02/11 15:16:31;;;;;;;6.50;3.45;;;8.00;80.50;;;;;;5043364;28;20052;-66
2022/02/11 15:18:59;;;;;;;8.10;3.13;;;8.00;81.70;;;;;;5056717;28;20049;-68
2022/02/11 15:21:26;;;;;;;8.63;3.90;;;8.00;81.90;;;;;;5041408;28;20076;-67
2022/02/11 15:23:53;;;;;;;7.57;3.08;;;8.00;82.40;;;;;;5053440;28;20059;-67
2022/02/11 15:26:20;;;;;;;7.55;3.47;;;7.90;81.80;;;;;;5059787;28;20049;-69
2022/02/11 15:28:47;;;;;;;7.88;3.85;;;7.90;82.60;;;;;;5068939;28;20051;-66
2022/02/11 15:31:19;;;;;;;9.90;3.20;;;7.80;82.20;;;;;;5053345;28;20056;-68
2022/02/11 15:33:46;;;;;;;10.18;3.53;;;7.80;82.70;;;;;;5053869;28;20437;-67
2022/02/11 15:36:15;;;;;;;6.72;3.15;;;7.70;83.00;;;;;;5056784;28;20051;-68
2022/02/11 15:38:42;;;;;;;7.22;3.25;;;7.70;82.90;;;;;;5070636;28;20044;-66
